You find our weatherinfo also at:

UK Metoffice

European Weather Network

Weather Underground



Nearby METAR Reports

   
EKEB - Esbjerg, Denmark
Distance from station: NNW 29 km
Opdateret: 21-01-2019 23:50
Mostly Cloudy  
Mostly Cloudy  
   Vind fra: SSE 1.5 m/s
Vind fra: SSE 1.5 m/s
Temperatur: -1°C
Wind Chill: -3°C
Dugpunkt: -1°C
Fugtighed: 100%
Barometer: 1013 hPa
Clouds: Mostly Cloudy
Visibility: 5 km
Cloud details: Mostly Cloudy 14000 ft
EKEB 212250Z AUTO 16003KT 5000 BKN140/// M01/M01 Q1013
EKSP - Skrydstrup(Dan-A, Denmark
Distance from station: E 35 km
Opdateret: 21-01-2019 23:50
Shallow Fog, Few Clouds  
Shallow Fog, Few Clouds  
   Vind fra: South 2.1 m/s
Vind fra: South 2.1 m/s
Temperatur: -2°C
Wind Chill: -5°C
Dugpunkt: -3°C
Fugtighed: 93%
Barometer: 1014 hPa
Clouds: Few Clouds
Visibility: More than 10 km
Cloud details: Few Clouds 3000 ft
EKSP 212250Z 18004KT 9999 MIFG FEW030 M02/M03 Q1014
EKBI - Billund Airport, Denmark
Distance from station: NNE 56 km
Opdateret: 21-01-2019 23:50
Klart  
Klart  
   Vind fra: ESE 1 m/s
Vind fra: ESE 1 m/s
Temperatur: -4°C
Dugpunkt: -4°C
Fugtighed: 100%
Barometer: 1013 hPa
Clouds: Klart
Visibility: 5 km
Cloud details: Klart
EKBI 212250Z AUTO 11002KT 5000 NCD M04/M04 Q1013 R09/310195
EKSB - Sonderborg Airpo, Denmark
Distance from station: ESE 76 km
Opdateret: 21-01-2019 23:50
Mostly Cloudy  
Mostly Cloudy  
   Vind fra: SW 2.6 m/s
Vind fra: SW 2.6 m/s
Temperatur: 1°C
Wind Chill: -2°C
Dugpunkt: 0°C
Fugtighed: 93%
Barometer: 1014 hPa
Clouds: Mostly Cloudy
Visibility: 10 km
Cloud details: Mostly Cloudy 3000 ft
EKSB 212250Z AUTO 23005KT 9999NDV BKN030/// 01/00 Q1014
EKVD - Vamdrup (aut/man), Denmark
Distance from station: ENE 41 km
Opdateret: 21-01-2019 23:50
  
  
   Vind fra: South 1.5 m/s
Vind fra: South 1.5 m/s
Temperatur: -2°C
Wind Chill: -4°C
Dugpunkt: -2°C
Fugtighed: 100%
Barometer: 1013 hPa
EKVD 212250Z AUTO 18003KT //// ///////// M02/M02 Q1013
EDXW - Westerland/Sylt, Germany
Distance from station: SSW 47 km
Opdateret: 21-01-2019 16:50
NOT Current
Nearby Showers, Few Clouds  
Nearby Showers, Few Clouds  
   Vind fra: West 4.6 m/s
Vind fra: West 4.6 m/s
Temperatur: 3°C
Wind Chill: -1°C
Dugpunkt: 1°C
Fugtighed: 87%
Barometer: 1016 hPa
Clouds: Few Clouds
Visibility: More than 10 km
Cloud details: Few Clouds 2800 ft
EDXW 211550Z 26009KT 9999 VCSH FEW028 03/01 Q1016

Original script by  Saratoga-weather.org Adapted for the template by  Weerstation Leuven

Equipment we use:

Weatherstation
Davis VP2

Weatherprogram
Meteohub

Weatherserver
RaspberryPI 3 model B

Davis VP2

Meteohub

RaspberryPI 3 model B